Hlavní strana
METAR-TAF:

METAR-TAF

Letiště :

Malmö, Švédsko

zeměpisná šířka: 55-33N, zeměpisná délka: 013-22E, výška: 106 m

Aktuální stav počasí

Zpráva byla vytvořena před 48 minutami, v 07:50 UTC
Východoseverovýchodní vítr 10 kt
Teplota 16°C
Vlhkost vzduchu 72%
Tlak 1011 hPa
Viditelnost 10 km a více
Žádná oblačnost pod 1500 m, nevyskytují se cumulonimby.

METAR: ESMS 260750Z 07010KT CAVOK 16/11 Q1011

Čas: 10:38 (08:38 UTC)

Předpověď počasí

Zpráva byla vytvořena před 3 hodinami a 36 minutami, v 05:02 UTC
Předpověď platná od 26 v 06 UTC do 27 v 06 UTC
Východní vítr 10 kt
Viditelnost 10 km a více
Skoro jasno ve výšce 3000 ft
Dočasný
od 26 v 19 UTC do 27 v 06 UTC
Viditelnost: 4000 m
Oblačno až skoro zataženo ve výšce 800 ft
Polojasno ve výšce 4000 ft, Cumulonimbus.
dešťové přeháňky
Změna
od 26 v 19 UTC do 26 v 22 UTC
Západoseverozápadní vítr 8 kt

TAF: ESMS 260502Z 2606/2706 10010KT 9999 FEW030 TEMPO 2619/2706 4000 SHRA BKN008 SCT040CB BECMG 2619/2622 30008KT

Stav a předpovědi počasí z více než 4 000 letišť (zprávy METAR a TAF).

Červené a žluté tečky na mapě představují dostupné meteorologické stanice.

Když kurzor umístíte na tečku, zobrazí se název stanice.

Pak kliknutím zobrazíte stav a předpověď počasí.

Chcete-li změnit mapu, kliknutím na zelené tlačítko se znaménkem +mapu přiblížíte, kliknutím na zelené tlačítko se znaménkem – mapu oddálíte a kliknutím na zelené šipky přejdete na sousední mapy.


METAR-TAF: